createdAt,value
2018-05-27T00:00:54.309Z,58.76
2018-05-27T00:03:21.119Z,58.75
2018-05-27T00:05:47.600Z,59.69
2018-05-27T00:08:14.089Z,61.18
2018-05-27T00:10:40.724Z,58.72
2018-05-27T00:13:13.286Z,58.60
2018-05-27T00:15:39.788Z,58.63
2018-05-27T00:18:06.415Z,58.28
2018-05-27T00:20:32.942Z,59.18
2018-05-27T00:22:59.493Z,60.37
2018-05-27T00:25:26.149Z,60.19
2018-05-27T00:27:52.675Z,60.21
2018-05-27T00:30:19.236Z,60.10
2018-05-27T00:32:45.790Z,59.94
2018-05-27T00:35:12.560Z,59.84
2018-05-27T00:37:39.109Z,59.81
2018-05-27T00:40:05.996Z,60.58
2018-05-27T00:42:32.625Z,60.89
2018-05-27T00:44:59.382Z,60.53
2018-05-27T00:47:26.124Z,61.56
2018-05-27T00:49:52.760Z,63.08
2018-05-27T00:52:19.300Z,61.59
2018-05-27T00:54:45.777Z,60.90
2018-05-27T00:57:12.345Z,60.77
2018-05-27T00:59:38.805Z,60.57
2018-05-27T01:02:05.388Z,60.59
2018-05-27T01:04:32.129Z,62.00
2018-05-27T01:06:58.640Z,59.78
2018-05-27T01:09:25.416Z,60.94
2018-05-27T01:11:52.011Z,59.58
2018-05-27T01:14:18.518Z,60.36
2018-05-27T01:16:45.005Z,59.67
2018-05-27T01:19:11.705Z,59.36
2018-05-27T01:21:38.244Z,59.43
2018-05-27T01:24:04.957Z,59.21
2018-05-27T01:26:31.564Z,59.75
2018-05-27T01:28:58.152Z,59.50
2018-05-27T01:31:24.836Z,59.46
2018-05-27T01:33:51.461Z,59.76
2018-05-27T01:36:18.100Z,59.93
2018-05-27T01:38:44.813Z,62.26
2018-05-27T01:41:11.583Z,61.76
2018-05-27T01:43:38.284Z,61.58
2018-05-27T01:46:04.845Z,62.62
2018-05-27T01:50:57.704Z,61.93
2018-05-27T01:53:24.298Z,62.21
2018-05-27T01:55:50.924Z,61.06
2018-05-27T01:58:17.475Z,60.93
2018-05-27T02:00:44.104Z,60.80
2018-05-27T02:03:10.834Z,62.18
2018-05-27T02:05:37.579Z,62.27
2018-05-27T02:08:04.280Z,62.80
2018-05-27T02:10:30.913Z,62.35
2018-05-27T02:12:57.660Z,61.58
2018-05-27T02:15:24.232Z,61.12
2018-05-27T02:17:50.884Z,60.97
2018-05-27T02:20:17.540Z,61.43
2018-05-27T02:22:44.042Z,62.79
2018-05-27T02:25:10.551Z,62.42
2018-05-27T02:27:37.309Z,61.14
2018-05-27T02:30:03.932Z,60.88
2018-05-27T02:32:30.623Z,60.96
2018-05-27T02:34:57.251Z,61.62
2018-05-27T02:37:23.840Z,60.49
2018-05-27T02:39:50.401Z,60.33
2018-05-27T02:42:16.922Z,60.84
2018-05-27T02:44:43.866Z,62.13
2018-05-27T02:47:10.532Z,61.22
2018-05-27T02:49:37.223Z,60.57
2018-05-27T02:52:03.967Z,61.70
2018-05-27T02:54:30.664Z,60.83
2018-05-27T02:56:57.181Z,61.71
2018-05-27T02:59:23.706Z,60.73
2018-05-27T03:01:50.250Z,60.77
2018-05-27T03:04:16.933Z,61.06
2018-05-27T03:06:43.492Z,60.98
2018-05-27T03:09:10.077Z,61.45
2018-05-27T03:11:36.653Z,62.03
2018-05-27T03:14:03.247Z,61.17
2018-05-27T03:16:29.836Z,61.06
2018-05-27T03:18:56.471Z,61.30
2018-05-27T03:21:23.188Z,61.71
2018-05-27T03:23:49.919Z,61.99
2018-05-27T03:26:23.558Z,62.09
2018-05-27T03:28:50.161Z,61.77
2018-05-27T03:31:16.801Z,62.03
2018-05-27T03:33:43.394Z,61.20
2018-05-27T03:36:09.932Z,61.49
2018-05-27T03:38:36.543Z,61.73
2018-05-27T03:41:03.176Z,61.44
2018-05-27T03:43:29.931Z,62.80
2018-05-27T03:45:56.580Z,61.83
2018-05-27T03:48:23.292Z,61.61
2018-05-27T03:50:49.818Z,61.99
2018-05-27T03:53:16.318Z,62.09
2018-05-27T03:55:42.930Z,61.66
2018-05-27T03:58:09.628Z,61.34
2018-05-27T04:00:36.292Z,61.75
2018-05-27T04:03:02.947Z,61.50
2018-05-27T04:05:41.480Z,62.04
2018-05-27T04:08:20.187Z,62.00
2018-05-27T04:10:46.758Z,61.79
2018-05-27T04:13:13.494Z,61.78
2018-05-27T04:15:40.176Z,62.23
2018-05-27T04:18:06.849Z,63.15
2018-05-27T04:20:33.600Z,62.26
2018-05-27T04:23:00.209Z,62.09
2018-05-27T04:25:26.929Z,62.24
2018-05-27T04:27:53.557Z,62.47
2018-05-27T04:30:20.134Z,61.99
2018-05-27T04:32:46.688Z,61.88
2018-05-27T04:35:13.216Z,62.14
2018-05-27T04:37:39.692Z,62.01
2018-05-27T04:40:06.213Z,61.68
2018-05-27T04:42:32.716Z,61.61
2018-05-27T04:44:59.299Z,61.50
2018-05-27T04:47:25.841Z,61.84
2018-05-27T04:49:52.621Z,61.61
2018-05-27T04:52:19.271Z,61.23
2018-05-27T04:54:46.890Z,61.09
2018-05-27T04:57:13.965Z,60.75
2018-05-27T04:59:41.974Z,60.98
2018-05-27T05:02:08.497Z,60.36
2018-05-27T05:04:38.164Z,60.09
2018-05-27T05:07:05.450Z,59.82
2018-05-27T05:09:36.693Z,59.60
2018-05-27T05:12:03.444Z,59.53
2018-05-27T05:14:31.662Z,59.27
2018-05-27T05:16:58.193Z,58.36
2018-05-27T05:19:24.677Z,60.94
2018-05-27T05:21:51.143Z,57.27
2018-05-27T05:24:17.989Z,58.75
2018-05-27T05:26:44.571Z,56.00
2018-05-27T05:29:11.475Z,55.88
2018-05-27T05:31:37.963Z,53.51
2018-05-27T05:34:04.506Z,52.41
2018-05-27T05:36:31.022Z,52.32
2018-05-27T05:38:57.497Z,51.61
2018-05-27T05:41:24.027Z,51.49
2018-05-27T05:43:50.561Z,51.20
2018-05-27T05:46:17.149Z,50.94
2018-05-27T05:48:43.698Z,51.16
2018-05-27T05:51:10.203Z,50.30
2018-05-27T05:53:36.664Z,52.57
2018-05-27T05:56:03.235Z,51.38
2018-05-27T05:58:29.812Z,52.14
2018-05-27T06:00:56.572Z,51.08
2018-05-27T06:03:23.322Z,54.22
2018-05-27T06:05:50.036Z,53.96
2018-05-27T06:08:16.561Z,51.67
2018-05-27T06:10:48.232Z,52.11
2018-05-27T06:13:16.285Z,53.14
2018-05-27T06:15:57.366Z,52.86
2018-05-27T06:18:26.268Z,52.44
2018-05-27T06:21:01.174Z,52.75
2018-05-27T06:23:46.920Z,51.93
2018-05-27T06:29:33.334Z,50.94
2018-05-27T06:32:00.107Z,52.43
2018-05-27T06:34:29.401Z,52.44
2018-05-27T06:36:57.801Z,52.24
2018-05-27T06:39:24.537Z,53.65
2018-05-27T06:41:52.519Z,51.45
2018-05-27T06:44:19.006Z,50.92
2018-05-27T06:46:45.628Z,51.51
2018-05-27T06:49:12.261Z,52.14
2018-05-27T06:51:38.723Z,51.27
2018-05-27T06:54:05.241Z,51.00
2018-05-27T06:56:31.771Z,50.73
2018-05-27T06:58:58.636Z,50.25
2018-05-27T07:01:25.259Z,49.81
2018-05-27T07:03:51.912Z,50.40
2018-05-27T07:06:18.437Z,51.18
2018-05-27T07:08:44.947Z,51.82
2018-05-27T07:11:11.412Z,52.14
2018-05-27T07:13:37.916Z,52.24
2018-05-27T07:16:04.509Z,52.21
2018-05-27T07:18:31.960Z,50.58
2018-05-27T07:20:58.425Z,49.85
2018-05-27T07:23:24.984Z,50.09
2018-05-27T07:25:51.449Z,50.42
2018-05-27T07:28:18.057Z,50.40
2018-05-27T07:30:51.477Z,48.74
2018-05-27T07:33:18.016Z,49.11
2018-05-27T07:35:44.657Z,49.93
2018-05-27T07:38:11.236Z,49.56
2018-05-27T07:40:37.998Z,49.96
2018-05-27T07:43:04.585Z,50.25
2018-05-27T07:45:31.305Z,50.33
2018-05-27T07:47:57.824Z,49.68
2018-05-27T07:50:24.529Z,49.97
2018-05-27T07:52:51.081Z,49.57
2018-05-27T07:55:17.643Z,49.39
2018-05-27T07:57:44.086Z,49.39
2018-05-27T08:00:10.537Z,49.31
2018-05-27T08:02:37.154Z,49.97
2018-05-27T08:05:03.843Z,48.52
2018-05-27T08:07:30.433Z,48.66
2018-05-27T08:09:57.072Z,48.05
2018-05-27T08:12:23.532Z,48.51
2018-05-27T08:14:50.054Z,46.62
2018-05-27T08:17:16.817Z,46.11
2018-05-27T08:19:43.532Z,45.66
2018-05-27T08:22:10.184Z,45.47
2018-05-27T08:24:36.755Z,46.52
2018-05-27T08:27:03.200Z,47.07
2018-05-27T08:29:29.712Z,46.53
2018-05-27T08:31:56.320Z,47.16
2018-05-27T08:34:22.821Z,45.65
2018-05-27T08:36:49.357Z,45.56
2018-05-27T08:39:15.978Z,46.11
2018-05-27T08:41:42.556Z,44.98
2018-05-27T08:44:09.114Z,45.33
2018-05-27T08:46:35.640Z,46.17
2018-05-27T08:49:02.250Z,46.88
2018-05-27T08:51:28.660Z,45.84
2018-05-27T08:53:55.236Z,45.66
2018-05-27T08:56:21.767Z,44.45
2018-05-27T08:58:48.767Z,44.55
2018-05-27T09:01:15.393Z,43.46
2018-05-27T09:03:41.965Z,43.72
2018-05-27T09:06:08.589Z,43.89
2018-05-27T09:08:35.060Z,44.88
2018-05-27T09:11:01.590Z,43.92
2018-05-27T09:13:28.101Z,43.71
2018-05-27T09:15:54.690Z,44.21
2018-05-27T09:18:21.120Z,44.11
2018-05-27T09:20:47.608Z,43.58
2018-05-27T09:23:14.158Z,44.10
2018-05-27T09:28:13.804Z,45.14
2018-05-27T09:30:40.323Z,45.03
2018-05-27T09:33:06.989Z,44.36
2018-05-27T09:35:33.452Z,44.60
2018-05-27T09:38:00.418Z,44.96
2018-05-27T09:40:27.064Z,44.94
2018-05-27T09:42:53.716Z,44.24
2018-05-27T09:45:20.356Z,43.68
2018-05-27T09:47:46.833Z,43.99
2018-05-27T09:50:13.340Z,44.21
2018-05-27T09:52:39.860Z,43.48
2018-05-27T09:55:06.336Z,43.75
2018-05-27T09:57:32.777Z,43.74
2018-05-27T09:59:59.301Z,43.25
2018-05-27T10:02:25.793Z,44.29
2018-05-27T10:04:52.426Z,44.54
2018-05-27T10:07:19.112Z,44.29
2018-05-27T10:09:45.701Z,44.51
2018-05-27T10:12:12.179Z,44.92
2018-05-27T10:14:38.752Z,44.19
2018-05-27T10:17:05.229Z,44.60
2018-05-27T10:19:31.801Z,45.15
2018-05-27T10:21:58.264Z,44.97
2018-05-27T10:24:24.876Z,44.05
2018-05-27T10:26:51.277Z,45.44
2018-05-27T10:29:18.001Z,44.52
2018-05-27T10:31:44.622Z,42.20
2018-05-27T10:34:11.172Z,42.86
2018-05-27T10:36:37.684Z,42.32
2018-05-27T10:39:04.970Z,42.28
2018-05-27T10:41:31.715Z,43.22
2018-05-27T10:43:58.185Z,43.77
2018-05-27T10:46:24.860Z,44.08
2018-05-27T10:48:51.308Z,44.42
2018-05-27T10:51:24.845Z,42.76
2018-05-27T10:53:51.295Z,42.10
2018-05-27T10:56:17.766Z,41.91
2018-05-27T10:58:45.086Z,42.19
2018-05-27T11:01:11.500Z,42.47
2018-05-27T11:03:37.981Z,43.32
2018-05-27T11:06:05.656Z,43.56
2018-05-27T11:08:32.301Z,43.17
2018-05-27T11:10:58.804Z,42.82
2018-05-27T11:13:25.391Z,43.39
2018-05-27T11:15:51.873Z,43.41
2018-05-27T11:18:18.555Z,43.42
2018-05-27T11:20:45.201Z,43.42
2018-05-27T11:23:11.676Z,44.05
2018-05-27T11:25:38.286Z,43.57
2018-05-27T11:28:04.764Z,43.93
2018-05-27T11:30:31.204Z,44.59
2018-05-27T11:32:58.087Z,44.75
2018-05-27T11:35:24.604Z,43.50
2018-05-27T11:37:51.021Z,43.34
2018-05-27T11:40:17.464Z,43.88
2018-05-27T11:42:43.910Z,44.03
2018-05-27T11:45:10.362Z,42.51
2018-05-27T11:47:36.776Z,43.22
2018-05-27T11:50:03.470Z,43.40
2018-05-27T11:52:29.936Z,42.89
2018-05-27T11:54:56.584Z,43.18
2018-05-27T11:57:23.137Z,44.00
2018-05-27T11:59:49.668Z,43.75
2018-05-27T12:02:16.313Z,44.34
2018-05-27T12:04:42.767Z,45.07
2018-05-27T12:07:09.280Z,44.22
2018-05-27T12:09:36.103Z,43.11
2018-05-27T12:12:02.616Z,42.26
2018-05-27T12:14:29.095Z,42.43
2018-05-27T12:16:55.488Z,41.46
2018-05-27T12:19:21.901Z,42.84
2018-05-27T12:21:48.497Z,42.73
2018-05-27T12:24:15.093Z,43.03
2018-05-27T12:26:41.646Z,43.26
2018-05-27T12:29:08.139Z,43.40
2018-05-27T12:31:34.762Z,43.20
2018-05-27T12:34:01.428Z,41.20
2018-05-27T12:36:27.976Z,42.20
2018-05-27T12:38:54.550Z,42.71
2018-05-27T12:41:20.988Z,41.66
2018-05-27T12:43:47.466Z,41.77
2018-05-27T12:46:14.017Z,42.15
2018-05-27T12:48:40.519Z,42.78
2018-05-27T12:51:06.992Z,43.52
2018-05-27T12:53:33.454Z,43.70
2018-05-27T12:55:59.974Z,42.99
2018-05-27T12:58:26.472Z,43.18
2018-05-27T13:00:53.147Z,43.08
2018-05-27T13:03:19.679Z,43.36
2018-05-27T13:05:46.257Z,43.36
2018-05-27T13:08:12.884Z,43.22
2018-05-27T13:10:39.398Z,42.48
2018-05-27T13:13:06.228Z,42.59
2018-05-27T13:15:32.788Z,42.65
2018-05-27T13:17:59.593Z,41.52
2018-05-27T13:20:26.168Z,42.18
2018-05-27T13:22:52.554Z,42.49
2018-05-27T13:25:19.037Z,42.59
2018-05-27T13:27:45.476Z,42.25
2018-05-27T13:30:12.035Z,42.38
2018-05-27T13:32:38.566Z,42.29
2018-05-27T13:35:05.034Z,42.48
2018-05-27T13:37:31.694Z,42.01
2018-05-27T13:39:58.364Z,41.72
2018-05-27T13:42:24.895Z,41.81
2018-05-27T13:44:51.594Z,41.90
2018-05-27T13:47:18.019Z,41.21
2018-05-27T13:49:44.489Z,40.81
2018-05-27T13:52:11.088Z,40.84
2018-05-27T13:54:37.640Z,42.14
2018-05-27T13:57:04.191Z,42.25
2018-05-27T13:59:30.717Z,41.74
2018-05-27T14:01:57.249Z,40.46
2018-05-27T14:04:24.382Z,39.90
2018-05-27T14:06:50.920Z,40.11
2018-05-27T14:09:17.429Z,40.07
2018-05-27T14:11:45.013Z,40.40
2018-05-27T14:14:11.697Z,40.80
2018-05-27T14:16:39.098Z,41.30
2018-05-27T14:19:06.751Z,40.63
2018-05-27T14:21:42.429Z,40.51
2018-05-27T14:24:26.656Z,39.71
2018-05-27T14:26:59.126Z,39.78
2018-05-27T14:29:28.232Z,40.37
2018-05-27T14:38:16.549Z,40.12
2018-05-27T14:43:39.609Z,39.73
2018-05-27T14:46:06.214Z,40.62
2018-05-27T14:48:33.182Z,40.24
2018-05-27T14:50:59.886Z,40.84
2018-05-27T14:53:26.373Z,41.46
2018-05-27T14:56:00.329Z,41.21
2018-05-27T14:58:26.837Z,40.55
2018-05-27T15:00:53.254Z,41.33
2018-05-27T15:03:19.728Z,41.17
2018-05-27T15:05:46.409Z,41.04
2018-05-27T15:08:12.978Z,39.94
2018-05-27T15:10:39.648Z,40.72
2018-05-27T15:13:06.176Z,40.57
2018-05-27T15:15:32.761Z,41.17
2018-05-27T15:17:59.241Z,41.55
2018-05-27T15:20:25.759Z,41.36
2018-05-27T15:22:52.366Z,41.25
2018-05-27T15:25:18.837Z,41.55
2018-05-27T15:27:45.245Z,41.90
2018-05-27T15:30:11.735Z,42.25
2018-05-27T15:32:38.365Z,42.87
2018-05-27T15:35:04.946Z,43.60
2018-05-27T15:37:31.528Z,44.19
2018-05-27T15:39:58.109Z,44.71
2018-05-27T15:42:24.664Z,43.92
2018-05-27T15:44:51.349Z,43.94
2018-05-27T15:47:18.005Z,44.38
2018-05-27T15:49:44.554Z,44.88
2018-05-27T15:52:11.266Z,44.75
2018-05-27T15:54:37.889Z,44.63
2018-05-27T15:57:04.522Z,44.72
2018-05-27T15:59:32.053Z,44.88
2018-05-27T16:01:58.529Z,45.04
2018-05-27T16:04:24.973Z,45.16
2018-05-27T16:06:51.562Z,45.34
2018-05-27T16:09:18.154Z,44.55
2018-05-27T16:11:44.870Z,44.14
2018-05-27T16:14:11.348Z,44.08
2018-05-27T16:16:37.992Z,43.89
2018-05-27T16:19:04.541Z,44.54
2018-05-27T16:21:30.990Z,45.18
2018-05-27T16:23:57.540Z,45.46
2018-05-27T16:26:24.004Z,46.05
2018-05-27T16:28:51.197Z,46.35
2018-05-27T16:31:18.012Z,46.63
2018-05-27T16:33:44.741Z,46.88
2018-05-27T16:36:16.069Z,47.03
2018-05-27T16:38:42.817Z,47.02
2018-05-27T16:41:09.419Z,46.96
2018-05-27T16:43:36.009Z,47.67
2018-05-27T16:46:02.804Z,47.92
2018-05-27T16:48:32.405Z,48.03
2018-05-27T16:51:05.025Z,48.37
2018-05-27T16:53:44.362Z,48.30
2018-05-27T16:56:16.090Z,48.51
2018-05-27T16:58:46.526Z,48.65
2018-05-27T17:01:21.164Z,48.59
2018-05-27T17:03:55.671Z,48.60
2018-05-27T17:06:25.475Z,48.58
2018-05-27T17:08:54.832Z,48.33
2018-05-27T17:11:24.481Z,48.46
2018-05-27T17:13:59.074Z,48.73
2018-05-27T17:16:30.967Z,48.79
2018-05-27T17:19:12.774Z,49.20
2018-05-27T17:24:28.043Z,49.76
2018-05-27T17:26:56.727Z,50.00
2018-05-27T17:29:25.279Z,49.75
2018-05-27T17:31:51.684Z,49.83
2018-05-27T17:34:18.616Z,49.80
2018-05-27T17:39:19.509Z,49.73
2018-05-27T17:41:46.216Z,49.96
2018-05-27T17:44:13.895Z,50.22
2018-05-27T17:46:40.547Z,50.13
2018-05-27T17:49:07.187Z,50.23
2018-05-27T17:54:43.801Z,50.84
2018-05-27T17:57:14.879Z,51.20
2018-05-27T17:59:41.774Z,51.56
2018-05-27T18:02:08.785Z,51.88
2018-05-27T18:04:35.549Z,51.83
2018-05-27T18:07:03.623Z,52.07
2018-05-27T18:09:30.194Z,51.95
2018-05-27T18:11:56.880Z,52.45
2018-05-27T18:14:23.522Z,52.79
2018-05-27T18:16:50.195Z,52.85
2018-05-27T18:19:16.689Z,53.14
2018-05-27T18:21:43.224Z,52.93
2018-05-27T18:24:09.822Z,52.75
2018-05-27T18:26:36.496Z,52.89
2018-05-27T18:29:03.106Z,53.11
2018-05-27T18:31:29.853Z,53.10
2018-05-27T18:33:56.515Z,53.12
2018-05-27T18:36:23.094Z,52.74
2018-05-27T18:38:49.762Z,52.54
2018-05-27T18:41:16.493Z,52.47
2018-05-27T18:43:43.035Z,51.91
2018-05-27T18:46:10.129Z,52.13
2018-05-27T18:48:36.694Z,52.22
2018-05-27T18:51:03.488Z,51.97
2018-05-27T18:53:30.816Z,51.66
2018-05-27T18:55:57.325Z,51.39
2018-05-27T18:58:23.959Z,52.03
2018-05-27T19:00:50.624Z,53.17
2018-05-27T19:03:18.491Z,52.29
2018-05-27T19:05:45.005Z,51.07
2018-05-27T19:08:11.834Z,51.98
2018-05-27T19:10:38.537Z,51.52
2018-05-27T19:13:05.026Z,51.66
2018-05-27T19:15:31.745Z,51.99
2018-05-27T19:17:58.185Z,52.26
2018-05-27T19:20:24.718Z,52.70
2018-05-27T19:22:51.152Z,53.20
2018-05-27T19:25:17.705Z,53.26
2018-05-27T19:27:45.062Z,53.48
2018-05-27T19:30:11.723Z,53.33
2018-05-27T19:32:38.220Z,53.19
2018-05-27T19:35:04.854Z,54.78
2018-05-27T19:37:31.512Z,54.29
2018-05-27T19:39:58.092Z,53.64
2018-05-27T19:42:24.739Z,53.67
2018-05-27T19:44:51.332Z,54.16
2018-05-27T19:47:18.021Z,55.03
2018-05-27T19:49:44.679Z,54.52
2018-05-27T19:52:11.417Z,55.57
2018-05-27T19:54:38.256Z,55.66
2018-05-27T19:57:04.782Z,55.34
2018-05-27T19:59:31.225Z,55.32
2018-05-27T20:01:57.718Z,53.65
2018-05-27T20:04:24.113Z,54.19
2018-05-27T20:06:50.704Z,53.44
2018-05-27T20:09:17.201Z,53.41
2018-05-27T20:11:43.820Z,53.61
2018-05-27T20:14:10.285Z,53.83
2018-05-27T20:16:36.922Z,53.77
2018-05-27T20:19:03.468Z,54.68
2018-05-27T20:21:30.267Z,56.79
2018-05-27T20:23:56.947Z,54.74
2018-05-27T20:26:23.502Z,54.66
2018-05-27T20:28:49.963Z,54.67
2018-05-27T20:31:16.453Z,55.01
2018-05-27T20:33:43.068Z,55.07
2018-05-27T20:36:09.631Z,56.15
2018-05-27T20:38:36.176Z,56.15
2018-05-27T20:41:02.814Z,55.37
2018-05-27T20:43:29.428Z,56.38
2018-05-27T20:45:55.985Z,55.88
2018-05-27T20:48:22.409Z,55.55
2018-05-27T20:50:51.445Z,55.89
2018-05-27T20:53:25.492Z,56.24
2018-05-27T20:55:51.972Z,56.47
2018-05-27T20:58:18.637Z,56.95
2018-05-27T21:00:45.719Z,56.43
2018-05-27T21:03:12.574Z,55.67
2018-05-27T21:05:40.184Z,55.33
2018-05-27T21:08:06.892Z,54.46
2018-05-27T21:10:33.837Z,54.29
2018-05-27T21:13:00.661Z,53.99
2018-05-27T21:15:27.590Z,54.54
2018-05-27T21:17:54.198Z,55.29
2018-05-27T21:20:21.497Z,53.43
2018-05-27T21:22:49.164Z,54.04
2018-05-27T21:25:15.621Z,55.06
2018-05-27T21:27:42.070Z,55.46
2018-05-27T21:30:08.731Z,57.51
2018-05-27T21:32:35.533Z,56.13
2018-05-27T21:35:02.037Z,56.21
2018-05-27T21:37:28.621Z,54.76
2018-05-27T21:39:55.189Z,55.62
2018-05-27T21:42:21.662Z,54.87
2018-05-27T21:44:48.417Z,56.49
2018-05-27T21:47:14.852Z,55.65
2018-05-27T21:49:41.480Z,55.73
2018-05-27T21:52:08.006Z,56.38
2018-05-27T21:54:34.455Z,56.52
2018-05-27T21:57:00.863Z,56.47
2018-05-27T21:59:27.420Z,56.46
2018-05-27T22:01:53.833Z,56.10
2018-05-27T22:04:20.489Z,56.15
2018-05-27T22:06:47.054Z,55.72
2018-05-27T22:09:13.465Z,56.49
2018-05-27T22:11:39.887Z,56.86
2018-05-27T22:14:06.333Z,58.80
2018-05-27T22:16:32.948Z,58.05
2018-05-27T22:18:59.644Z,57.93
2018-05-27T22:21:26.296Z,58.17
2018-05-27T22:23:52.769Z,58.19
2018-05-27T22:26:19.240Z,59.08
2018-05-27T22:28:45.924Z,60.17
2018-05-27T22:31:12.485Z,59.29
2018-05-27T22:33:39.053Z,59.17
2018-05-27T22:36:05.641Z,59.12
2018-05-27T22:38:32.037Z,59.27
2018-05-27T22:40:58.692Z,59.24
2018-05-27T22:43:25.097Z,59.13
2018-05-27T22:45:51.629Z,59.46
2018-05-27T22:48:18.093Z,59.40
2018-05-27T22:50:44.604Z,60.13
2018-05-27T22:53:11.180Z,59.89
2018-05-27T22:55:37.577Z,59.52
2018-05-27T22:58:04.128Z,60.83
2018-05-27T23:00:30.657Z,59.51
2018-05-27T23:02:57.338Z,59.58
2018-05-27T23:05:23.898Z,59.64
2018-05-27T23:07:57.473Z,59.66
2018-05-27T23:10:23.932Z,60.08
2018-05-27T23:12:50.422Z,60.17
2018-05-27T23:15:17.005Z,61.24
2018-05-27T23:17:43.548Z,61.09
2018-05-27T23:20:10.117Z,61.18
2018-05-27T23:22:36.686Z,61.25
2018-05-27T23:25:03.305Z,61.18
2018-05-27T23:27:29.920Z,61.24
2018-05-27T23:29:56.580Z,61.26
2018-05-27T23:32:23.185Z,61.31
2018-05-27T23:34:49.909Z,61.14
2018-05-27T23:37:16.528Z,61.02
2018-05-27T23:39:43.116Z,61.37
2018-05-27T23:42:09.732Z,61.32
2018-05-27T23:44:36.405Z,61.28
2018-05-27T23:47:03.004Z,61.26
2018-05-27T23:49:29.477Z,61.25
2018-05-27T23:51:55.947Z,61.22
2018-05-27T23:54:22.626Z,61.71
2018-05-27T23:56:49.152Z,61.03
2018-05-27T23:59:15.668Z,61.02
